sensor_id;sensor_type;location;lat;lon;timestamp;pressure;altitude;pressure_sealevel;temperature;humidity
63006;BME280;53704;52.532;6.426;2023-05-19T00:00:54;102802.31;;;6.96;100.00
63006;BME280;53704;52.532;6.426;2023-05-19T00:03:20;102795.09;;;6.98;100.00
63006;BME280;53704;52.532;6.426;2023-05-19T00:05:47;102798.69;;;6.97;100.00
63006;BME280;53704;52.532;6.426;2023-05-19T00:08:15;102789.84;;;7.11;100.00
63006;BME280;53704;52.532;6.426;2023-05-19T00:10:41;102788.75;;;6.99;100.00
63006;BME280;53704;52.532;6.426;2023-05-19T00:13:07;102795.34;;;6.93;100.00
63006;BME280;53704;52.532;6.426;2023-05-19T00:15:33;102798.31;;;6.88;100.00
63006;BME280;53704;52.532;6.426;2023-05-19T00:17:58;102795.16;;;6.96;100.00
63006;BME280;53704;52.532;6.426;2023-05-19T00:20:24;102795.63;;;6.88;100.00
63006;BME280;53704;52.532;6.426;2023-05-19T00:22:49;102794.94;;;6.85;100.00
63006;BME280;53704;52.532;6.426;2023-05-19T00:25:15;102795.94;;;6.98;100.00
63006;BME280;53704;52.532;6.426;2023-05-19T00:27:40;102792.94;;;6.88;100.00
63006;BME280;53704;52.532;6.426;2023-05-19T00:30:06;102789.50;;;6.86;100.00
63006;BME280;53704;52.532;6.426;2023-05-19T00:32:32;102789.88;;;6.80;100.00
63006;BME280;53704;52.532;6.426;2023-05-19T00:34:58;102784.66;;;6.93;100.00
63006;BME280;53704;52.532;6.426;2023-05-19T00:37:23;102785.47;;;6.79;100.00
63006;BME280;53704;52.532;6.426;2023-05-19T00:39:49;102787.47;;;6.76;100.00
63006;BME280;53704;52.532;6.426;2023-05-19T00:42:15;102776.00;;;6.74;100.00
63006;BME280;53704;52.532;6.426;2023-05-19T00:44:40;102776.75;;;6.76;100.00
63006;BME280;53704;52.532;6.426;2023-05-19T00:47:06;102781.19;;;6.61;100.00
63006;BME280;53704;52.532;6.426;2023-05-19T00:49:32;102777.75;;;6.59;100.00
63006;BME280;53704;52.532;6.426;2023-05-19T00:52:00;102775.50;;;6.51;100.00
63006;BME280;53704;52.532;6.426;2023-05-19T00:54:26;102777.81;;;6.57;100.00
63006;BME280;53704;52.532;6.426;2023-05-19T00:56:52;102776.19;;;6.55;100.00
63006;BME280;53704;52.532;6.426;2023-05-19T00:59:18;102767.56;;;6.49;100.00
63006;BME280;53704;52.532;6.426;2023-05-19T01:01:44;102769.81;;;6.57;100.00
63006;BME280;53704;52.532;6.426;2023-05-19T01:04:15;102768.16;;;6.55;100.00
63006;BME280;53704;52.532;6.426;2023-05-19T01:06:41;102767.75;;;6.46;100.00
63006;BME280;53704;52.532;6.426;2023-05-19T01:09:07;102768.09;;;6.40;100.00
63006;BME280;53704;52.532;6.426;2023-05-19T01:11:33;102767.22;;;6.56;100.00
63006;BME280;53704;52.532;6.426;2023-05-19T01:13:58;102761.38;;;6.49;100.00
63006;BME280;53704;52.532;6.426;2023-05-19T01:16:30;102757.97;;;6.61;100.00
63006;BME280;53704;52.532;6.426;2023-05-19T01:19:13;102761.00;;;6.55;100.00
63006;BME280;53704;52.532;6.426;2023-05-19T01:22:26;102763.47;;;6.44;100.00
63006;BME280;53704;52.532;6.426;2023-05-19T01:30:43;102769.06;;;6.39;100.00
63006;BME280;53704;52.532;6.426;2023-05-19T01:33:12;102762.69;;;6.26;100.00
63006;BME280;53704;52.532;6.426;2023-05-19T01:35:42;102761.84;;;6.25;100.00
63006;BME280;53704;52.532;6.426;2023-05-19T01:38:10;102766.22;;;6.42;100.00
63006;BME280;53704;52.532;6.426;2023-05-19T01:40:38;102756.38;;;6.43;100.00
63006;BME280;53704;52.532;6.426;2023-05-19T01:43:06;102758.88;;;6.46;100.00
63006;BME280;53704;52.532;6.426;2023-05-19T01:45:33;102755.56;;;6.57;100.00
63006;BME280;53704;52.532;6.426;2023-05-19T01:48:01;102751.91;;;6.27;100.00
63006;BME280;53704;52.532;6.426;2023-05-19T01:50:27;102752.94;;;6.41;100.00
63006;BME280;53704;52.532;6.426;2023-05-19T01:52:53;102756.91;;;6.18;100.00
63006;BME280;53704;52.532;6.426;2023-05-19T01:55:19;102756.69;;;6.06;100.00
63006;BME280;53704;52.532;6.426;2023-05-19T01:58:16;102756.84;;;6.03;100.00
63006;BME280;53704;52.532;6.426;2023-05-19T02:00:51;102760.13;;;6.08;100.00
63006;BME280;53704;52.532;6.426;2023-05-19T02:09:58;102746.91;;;6.05;100.00
63006;BME280;53704;52.532;6.426;2023-05-19T02:12:31;102746.75;;;6.08;100.00
63006;BME280;53704;52.532;6.426;2023-05-19T02:15:07;102746.41;;;6.14;100.00
63006;BME280;53704;52.532;6.426;2023-05-19T02:17:39;102743.56;;;6.18;100.00
63006;BME280;53704;52.532;6.426;2023-05-19T02:20:07;102746.22;;;6.18;100.00
63006;BME280;53704;52.532;6.426;2023-05-19T02:22:36;102748.06;;;6.17;100.00
63006;BME280;53704;52.532;6.426;2023-05-19T02:25:01;102746.91;;;6.05;100.00
63006;BME280;53704;52.532;6.426;2023-05-19T02:27:27;102742.28;;;6.09;100.00
63006;BME280;53704;52.532;6.426;2023-05-19T02:29:52;102739.63;;;5.91;100.00
63006;BME280;53704;52.532;6.426;2023-05-19T02:32:17;102735.09;;;5.93;100.00
63006;BME280;53704;52.532;6.426;2023-05-19T02:34:43;102743.97;;;5.94;100.00
63006;BME280;53704;52.532;6.426;2023-05-19T02:37:16;102745.47;;;6.00;100.00
63006;BME280;53704;52.532;6.426;2023-05-19T02:39:42;102740.34;;;5.95;100.00
63006;BME280;53704;52.532;6.426;2023-05-19T02:42:08;102739.47;;;5.94;100.00
63006;BME280;53704;52.532;6.426;2023-05-19T02:44:33;102735.59;;;5.84;100.00
63006;BME280;53704;52.532;6.426;2023-05-19T02:46:58;102738.38;;;5.83;100.00
63006;BME280;53704;52.532;6.426;2023-05-19T02:49:24;102731.53;;;5.93;100.00
63006;BME280;53704;52.532;6.426;2023-05-19T02:51:50;102726.56;;;5.87;100.00
63006;BME280;53704;52.532;6.426;2023-05-19T02:54:15;102724.81;;;5.86;100.00
63006;BME280;53704;52.532;6.426;2023-05-19T02:56:40;102730.94;;;5.88;100.00
63006;BME280;53704;52.532;6.426;2023-05-19T02:59:06;102722.56;;;5.94;100.00
63006;BME280;53704;52.532;6.426;2023-05-19T03:01:31;102728.09;;;5.91;100.00
63006;BME280;53704;52.532;6.426;2023-05-19T03:03:57;102720.25;;;5.88;100.00
63006;BME280;53704;52.532;6.426;2023-05-19T03:06:23;102718.25;;;5.91;100.00
63006;BME280;53704;52.532;6.426;2023-05-19T03:08:49;102718.97;;;5.79;100.00
63006;BME280;53704;52.532;6.426;2023-05-19T03:11:14;102709.81;;;5.83;100.00
63006;BME280;53704;52.532;6.426;2023-05-19T03:13:41;102717.31;;;5.76;100.00
63006;BME280;53704;52.532;6.426;2023-05-19T03:16:08;102725.50;;;5.73;100.00
63006;BME280;53704;52.532;6.426;2023-05-19T03:18:33;102723.91;;;5.87;100.00
63006;BME280;53704;52.532;6.426;2023-05-19T03:20:59;102720.66;;;5.96;100.00
63006;BME280;53704;52.532;6.426;2023-05-19T03:23:25;102726.91;;;5.80;100.00
63006;BME280;53704;52.532;6.426;2023-05-19T03:25:50;102725.53;;;6.05;100.00
63006;BME280;53704;52.532;6.426;2023-05-19T03:28:18;102727.66;;;5.67;100.00
63006;BME280;53704;52.532;6.426;2023-05-19T03:30:43;102727.41;;;5.71;100.00
63006;BME280;53704;52.532;6.426;2023-05-19T03:33:09;102722.06;;;5.71;100.00
63006;BME280;53704;52.532;6.426;2023-05-19T03:35:34;102721.28;;;5.69;100.00
63006;BME280;53704;52.532;6.426;2023-05-19T03:37:59;102719.47;;;5.70;100.00
63006;BME280;53704;52.532;6.426;2023-05-19T03:40:25;102724.06;;;5.68;100.00
63006;BME280;53704;52.532;6.426;2023-05-19T03:42:50;102721.91;;;5.90;100.00
63006;BME280;53704;52.532;6.426;2023-05-19T03:45:16;102717.06;;;5.65;100.00
63006;BME280;53704;52.532;6.426;2023-05-19T03:47:41;102721.91;;;5.74;100.00
63006;BME280;53704;52.532;6.426;2023-05-19T03:50:07;102730.47;;;5.97;100.00
63006;BME280;53704;52.532;6.426;2023-05-19T03:52:33;102725.53;;;6.05;100.00
63006;BME280;53704;52.532;6.426;2023-05-19T03:54:59;102720.50;;;6.15;100.00
63006;BME280;53704;52.532;6.426;2023-05-19T03:57:24;102723.28;;;6.13;100.00
63006;BME280;53704;52.532;6.426;2023-05-19T03:59:50;102727.44;;;6.03;100.00
63006;BME280;53704;52.532;6.426;2023-05-19T04:02:15;102724.22;;;6.28;100.00
63006;BME280;53704;52.532;6.426;2023-05-19T04:04:40;102721.84;;;6.38;100.00
63006;BME280;53704;52.532;6.426;2023-05-19T04:07:06;102716.72;;;6.19;100.00
63006;BME280;53704;52.532;6.426;2023-05-19T04:09:31;102725.88;;;5.99;100.00
63006;BME280;53704;52.532;6.426;2023-05-19T04:12:00;102734.16;;;6.10;100.00
63006;BME280;53704;52.532;6.426;2023-05-19T04:14:26;102729.75;;;6.09;100.00
63006;BME280;53704;52.532;6.426;2023-05-19T04:16:52;102733.72;;;6.18;100.00
63006;BME280;53704;52.532;6.426;2023-05-19T04:19:18;102733.28;;;6.10;100.00
63006;BME280;53704;52.532;6.426;2023-05-19T04:21:43;102742.84;;;6.30;100.00
63006;BME280;53704;52.532;6.426;2023-05-19T04:24:09;102745.47;;;6.15;100.00
63006;BME280;53704;52.532;6.426;2023-05-19T04:26:34;102737.41;;;6.31;100.00
63006;BME280;53704;52.532;6.426;2023-05-19T04:29:00;102744.69;;;6.29;100.00
63006;BME280;53704;52.532;6.426;2023-05-19T04:31:28;102748.13;;;6.15;100.00
63006;BME280;53704;52.532;6.426;2023-05-19T04:33:54;102745.72;;;6.11;100.00
63006;BME280;53704;52.532;6.426;2023-05-19T04:36:19;102742.97;;;6.12;100.00
63006;BME280;53704;52.532;6.426;2023-05-19T04:38:46;102749.41;;;6.24;100.00
63006;BME280;53704;52.532;6.426;2023-05-19T04:41:11;102744.31;;;6.20;100.00
63006;BME280;53704;52.532;6.426;2023-05-19T04:43:37;102742.97;;;6.12;100.00
63006;BME280;53704;52.532;6.426;2023-05-19T04:46:11;102740.34;;;6.27;100.00
63006;BME280;53704;52.532;6.426;2023-05-19T04:48:40;102748.31;;;6.12;100.00
63006;BME280;53704;52.532;6.426;2023-05-19T04:51:05;102734.25;;;6.09;100.00
63006;BME280;53704;52.532;6.426;2023-05-19T04:53:32;102740.13;;;6.00;100.00
63006;BME280;53704;52.532;6.426;2023-05-19T04:55:58;102743.56;;;6.18;100.00
63006;BME280;53704;52.532;6.426;2023-05-19T04:58:25;102740.72;;;6.05;100.00
63006;BME280;53704;52.532;6.426;2023-05-19T05:00:52;102734.94;;;6.12;100.00
63006;BME280;53704;52.532;6.426;2023-05-19T05:03:19;102734.69;;;6.17;100.00
63006;BME280;53704;52.532;6.426;2023-05-19T05:05:47;102732.69;;;6.21;100.00
63006;BME280;53704;52.532;6.426;2023-05-19T05:08:12;102727.75;;;6.29;100.00
63006;BME280;53704;52.532;6.426;2023-05-19T05:10:40;102731.22;;;6.31;100.00
63006;BME280;53704;52.532;6.426;2023-05-19T05:13:06;102736.03;;;6.24;100.00
63006;BME280;53704;52.532;6.426;2023-05-19T05:15:32;102742.00;;;6.29;100.00
63006;BME280;53704;52.532;6.426;2023-05-19T05:17:57;102741.16;;;6.43;100.00
63006;BME280;53704;52.532;6.426;2023-05-19T05:20:23;102747.50;;;6.42;100.00
63006;BME280;53704;52.532;6.426;2023-05-19T05:22:49;102747.06;;;6.50;100.00
63006;BME280;53704;52.532;6.426;2023-05-19T05:25:15;102741.81;;;6.63;100.00
63006;BME280;53704;52.532;6.426;2023-05-19T05:27:41;102748.53;;;6.70;100.00
63006;BME280;53704;52.532;6.426;2023-05-19T05:30:06;102741.78;;;6.79;100.00
63006;BME280;53704;52.532;6.426;2023-05-19T05:32:32;102735.28;;;6.97;100.00
63006;BME280;53704;52.532;6.426;2023-05-19T05:34:58;102737.78;;;7.00;100.00
63006;BME280;53704;52.532;6.426;2023-05-19T05:37:23;102742.19;;;7.01;100.00
63006;BME280;53704;52.532;6.426;2023-05-19T05:39:49;102738.38;;;7.05;100.00
63006;BME280;53704;52.532;6.426;2023-05-19T05:42:14;102743.47;;;7.10;100.00
63006;BME280;53704;52.532;6.426;2023-05-19T05:44:40;102742.19;;;7.16;100.00
63006;BME280;53704;52.532;6.426;2023-05-19T05:47:06;102743.94;;;7.31;100.00
63006;BME280;53704;52.532;6.426;2023-05-19T05:49:32;102732.47;;;7.43;100.00
63006;BME280;53704;52.532;6.426;2023-05-19T05:52:01;102734.25;;;7.43;100.00
63006;BME280;53704;52.532;6.426;2023-05-19T05:54:27;102743.25;;;7.56;100.00
63006;BME280;53704;52.532;6.426;2023-05-19T05:56:53;102742.69;;;7.66;100.00
63006;BME280;53704;52.532;6.426;2023-05-19T05:59:19;102739.22;;;7.78;100.00
63006;BME280;53704;52.532;6.426;2023-05-19T06:01:45;102747.03;;;7.81;100.00
63006;BME280;53704;52.532;6.426;2023-05-19T06:04:10;102749.22;;;7.89;100.00
63006;BME280;53704;52.532;6.426;2023-05-19T06:06:36;102749.41;;;8.00;100.00
63006;BME280;53704;52.532;6.426;2023-05-19T06:09:02;102741.53;;;8.11;100.00
63006;BME280;53704;52.532;6.426;2023-05-19T06:11:28;102746.16;;;8.22;100.00
63006;BME280;53704;52.532;6.426;2023-05-19T06:13:53;102752.84;;;8.29;100.00
63006;BME280;53704;52.532;6.426;2023-05-19T06:16:19;102747.09;;;8.36;100.00
63006;BME280;53704;52.532;6.426;2023-05-19T06:18:44;102750.19;;;8.57;100.00
63006;BME280;53704;52.532;6.426;2023-05-19T06:21:09;102751.50;;;8.64;100.00
63006;BME280;53704;52.532;6.426;2023-05-19T06:23:40;102751.81;;;8.72;100.00
63006;BME280;53704;52.532;6.426;2023-05-19T06:26:06;102744.22;;;8.92;100.00
63006;BME280;53704;52.532;6.426;2023-05-19T06:28:32;102750.06;;;8.98;100.00
63006;BME280;53704;52.532;6.426;2023-05-19T06:30:58;102748.09;;;9.00;100.00
63006;BME280;53704;52.532;6.426;2023-05-19T06:33:24;102746.38;;;9.12;100.00
63006;BME280;53704;52.532;6.426;2023-05-19T06:35:49;102746.84;;;9.19;100.00
63006;BME280;53704;52.532;6.426;2023-05-19T06:38:15;102751.09;;;9.21;100.00
63006;BME280;53704;52.532;6.426;2023-05-19T06:40:40;102736.06;;;9.32;100.00
63006;BME280;53704;52.532;6.426;2023-05-19T06:43:06;102739.91;;;9.53;100.00
63006;BME280;53704;52.532;6.426;2023-05-19T06:45:32;102737.31;;;9.52;100.00
63006;BME280;53704;52.532;6.426;2023-05-19T06:47:57;102737.75;;;9.58;100.00
63006;BME280;53704;52.532;6.426;2023-05-19T06:50:23;102742.66;;;9.77;100.00
63006;BME280;53704;52.532;6.426;2023-05-19T06:52:49;102747.25;;;9.88;100.00
63006;BME280;53704;52.532;6.426;2023-05-19T06:55:15;102749.59;;;9.93;100.00
63006;BME280;53704;52.532;6.426;2023-05-19T06:57:40;102746.00;;;10.05;100.00
63006;BME280;53704;52.532;6.426;2023-05-19T07:00:06;102746.06;;;10.17;100.00
63006;BME280;53704;52.532;6.426;2023-05-19T07:02:36;102745.69;;;10.34;100.00
63006;BME280;53704;52.532;6.426;2023-05-19T07:05:02;102738.41;;;10.47;100.00
63006;BME280;53704;52.532;6.426;2023-05-19T07:07:27;102742.66;;;10.63;100.00
63006;BME280;53704;52.532;6.426;2023-05-19T07:09:53;102741.44;;;10.78;100.00
63006;BME280;53704;52.532;6.426;2023-05-19T07:12:18;102730.06;;;10.86;100.00
63006;BME280;53704;52.532;6.426;2023-05-19T07:14:44;102741.03;;;11.07;100.00
63006;BME280;53704;52.532;6.426;2023-05-19T07:17:09;102736.38;;;11.09;100.00
63006;BME280;53704;52.532;6.426;2023-05-19T07:19:35;102740.69;;;11.23;100.00
63006;BME280;53704;52.532;6.426;2023-05-19T07:22:00;102730.50;;;11.27;100.00
63006;BME280;53704;52.532;6.426;2023-05-19T07:24:26;102727.56;;;11.52;100.00
63006;BME280;53704;52.532;6.426;2023-05-19T07:26:51;102729.03;;;11.68;100.00
63006;BME280;53704;52.532;6.426;2023-05-19T07:29:17;102725.09;;;11.72;100.00
63006;BME280;53704;52.532;6.426;2023-05-19T07:31:42;102731.81;;;11.77;100.00
63006;BME280;53704;52.532;6.426;2023-05-19T07:34:07;102736.59;;;11.97;100.00
63006;BME280;53704;52.532;6.426;2023-05-19T07:36:33;102734.38;;;12.02;100.00
63006;BME280;53704;52.532;6.426;2023-05-19T07:38:58;102738.47;;;12.28;100.00
63006;BME280;53704;52.532;6.426;2023-05-19T07:41:24;102724.94;;;12.40;100.00
63006;BME280;53704;52.532;6.426;2023-05-19T07:43:50;102739.63;;;12.47;100.00
63006;BME280;53704;52.532;6.426;2023-05-19T07:46:15;102735.81;;;12.49;100.00
63006;BME280;53704;52.532;6.426;2023-05-19T07:48:41;102739.13;;;12.53;100.00
63006;BME280;53704;52.532;6.426;2023-05-19T07:51:06;102733.00;;;12.72;100.00
63006;BME280;53704;52.532;6.426;2023-05-19T07:53:35;102729.38;;;12.83;100.00
63006;BME280;53704;52.532;6.426;2023-05-19T07:56:01;102724.06;;;13.02;100.00
63006;BME280;53704;52.532;6.426;2023-05-19T07:58:26;102728.78;;;13.31;100.00
63006;BME280;53704;52.532;6.426;2023-05-19T08:00:52;102730.31;;;13.55;100.00
63006;BME280;53704;52.532;6.426;2023-05-19T08:03:17;102727.69;;;13.65;100.00
63006;BME280;53704;52.532;6.426;2023-05-19T08:05:43;102730.41;;;13.74;100.00
63006;BME280;53704;52.532;6.426;2023-05-19T08:08:08;102719.84;;;13.71;100.00
63006;BME280;53704;52.532;6.426;2023-05-19T08:10:35;102722.59;;;13.91;100.00
63006;BME280;53704;52.532;6.426;2023-05-19T08:13:01;102712.50;;;14.32;100.00
63006;BME280;53704;52.532;6.426;2023-05-19T08:15:27;102712.38;;;14.43;100.00
63006;BME280;53704;52.532;6.426;2023-05-19T08:17:52;102709.94;;;14.21;100.00
63006;BME280;53704;52.532;6.426;2023-05-19T08:20:18;102711.38;;;14.54;100.00
63006;BME280;53704;52.532;6.426;2023-05-19T08:22:43;102712.66;;;14.70;100.00
63006;BME280;53704;52.532;6.426;2023-05-19T08:25:09;102705.00;;;15.12;100.00
63006;BME280;53704;52.532;6.426;2023-05-19T08:27:35;102702.88;;;15.06;100.00
63006;BME280;53704;52.532;6.426;2023-05-19T08:30:01;102702.25;;;15.22;100.00
63006;BME280;53704;52.532;6.426;2023-05-19T08:32:26;102694.63;;;15.35;100.00
63006;BME280;53704;52.532;6.426;2023-05-19T08:34:52;102690.75;;;15.66;99.60
63006;BME280;53704;52.532;6.426;2023-05-19T08:37:17;102685.84;;;15.79;97.67
63006;BME280;53704;52.532;6.426;2023-05-19T08:39:42;102678.88;;;15.67;88.97
63006;BME280;53704;52.532;6.426;2023-05-19T08:42:08;102685.41;;;15.74;87.69
63006;BME280;53704;52.532;6.426;2023-05-19T08:44:35;102689.50;;;15.88;86.24
63006;BME280;53704;52.532;6.426;2023-05-19T08:47:03;102681.03;;;15.63;83.98
63006;BME280;53704;52.532;6.426;2023-05-19T08:49:42;102682.59;;;15.94;84.56
63006;BME280;53704;52.532;6.426;2023-05-19T08:52:16;102672.94;;;15.81;83.02
63006;BME280;53704;52.532;6.426;2023-05-19T08:54:52;102663.59;;;16.12;86.11
63006;BME280;53704;52.532;6.426;2023-05-19T08:57:22;102668.97;;;16.48;82.92
63006;BME280;53704;52.532;6.426;2023-05-19T08:59:50;102659.44;;;16.70;81.84
63006;BME280;53704;52.532;6.426;2023-05-19T09:02:17;102664.56;;;16.46;80.59
63006;BME280;53704;52.532;6.426;2023-05-19T09:04:42;102663.09;;;16.78;76.70
63006;BME280;53704;52.532;6.426;2023-05-19T09:07:12;102665.47;;;16.55;75.62
63006;BME280;53704;52.532;6.426;2023-05-19T09:09:38;102656.06;;;16.94;75.67
63006;BME280;53704;52.532;6.426;2023-05-19T09:12:09;102652.03;;;16.80;71.58
63006;BME280;53704;52.532;6.426;2023-05-19T09:14:36;102654.72;;;16.72;76.59
63006;BME280;53704;52.532;6.426;2023-05-19T09:17:02;102650.00;;;17.00;75.76
63006;BME280;53704;52.532;6.426;2023-05-19T09:19:28;102647.03;;;16.93;73.39
63006;BME280;53704;52.532;6.426;2023-05-19T09:22:00;102648.44;;;16.97;71.62
63006;BME280;53704;52.532;6.426;2023-05-19T09:24:30;102646.94;;;17.46;72.58
63006;BME280;53704;52.532;6.426;2023-05-19T09:26:56;102644.84;;;17.31;74.10
63006;BME280;53704;52.532;6.426;2023-05-19T09:29:21;102659.28;;;17.24;68.82
63006;BME280;53704;52.532;6.426;2023-05-19T09:31:47;102651.94;;;17.16;65.22
63006;BME280;53704;52.532;6.426;2023-05-19T09:34:14;102644.81;;;17.23;65.22
63006;BME280;53704;52.532;6.426;2023-05-19T09:36:40;102641.63;;;17.36;66.57
63006;BME280;53704;52.532;6.426;2023-05-19T09:39:16;102637.69;;;17.30;66.67
63006;BME280;53704;52.532;6.426;2023-05-19T09:41:42;102634.81;;;17.99;68.69
63006;BME280;53704;52.532;6.426;2023-05-19T09:44:27;102632.38;;;17.80;64.79
63006;BME280;53704;52.532;6.426;2023-05-19T09:46:56;102640.63;;;18.13;64.17
63006;BME280;53704;52.532;6.426;2023-05-19T09:49:24;102634.84;;;17.48;60.96
63006;BME280;53704;52.532;6.426;2023-05-19T09:51:53;102642.44;;;17.87;62.03
63006;BME280;53704;52.532;6.426;2023-05-19T09:54:20;102638.66;;;17.64;59.53
63006;BME280;53704;52.532;6.426;2023-05-19T09:56:50;102637.19;;;18.02;64.68
63006;BME280;53704;52.532;6.426;2023-05-19T09:59:16;102636.41;;;17.59;61.21
63006;BME280;53704;52.532;6.426;2023-05-19T10:01:43;102638.72;;;17.38;59.52
63006;BME280;53704;52.532;6.426;2023-05-19T10:04:11;102640.72;;;17.70;61.83
63006;BME280;53704;52.532;6.426;2023-05-19T10:06:37;102634.81;;;17.32;61.37
63006;BME280;53704;52.532;6.426;2023-05-19T10:09:04;102632.78;;;18.18;63.74
63006;BME280;53704;52.532;6.426;2023-05-19T10:11:30;102624.94;;;18.15;62.75
63006;BME280;53704;52.532;6.426;2023-05-19T10:13:56;102636.19;;;18.12;59.52
63006;BME280;53704;52.532;6.426;2023-05-19T10:16:25;102621.81;;;17.77;61.88
63006;BME280;53704;52.532;6.426;2023-05-19T10:18:51;102620.16;;;18.17;61.20
63006;BME280;53704;52.532;6.426;2023-05-19T10:21:19;102616.88;;;18.62;59.97
63006;BME280;53704;52.532;6.426;2023-05-19T10:23:44;102626.31;;;18.11;58.13
63006;BME280;53704;52.532;6.426;2023-05-19T10:26:10;102615.00;;;18.55;59.68
63006;BME280;53704;52.532;6.426;2023-05-19T10:28:39;102612.72;;;18.83;59.59
63006;BME280;53704;52.532;6.426;2023-05-19T10:31:09;102598.00;;;18.44;56.51
63006;BME280;53704;52.532;6.426;2023-05-19T10:36:48;102590.97;;;19.14;56.39
63006;BME280;53704;52.532;6.426;2023-05-19T10:39:33;102586.50;;;19.53;53.22
63006;BME280;53704;52.532;6.426;2023-05-19T10:44:56;102565.22;;;19.48;54.21
63006;BME280;53704;52.532;6.426;2023-05-19T10:47:25;102572.72;;;19.69;53.18
63006;BME280;53704;52.532;6.426;2023-05-19T10:49:53;102573.56;;;19.78;54.97
63006;BME280;53704;52.532;6.426;2023-05-19T10:52:23;102581.06;;;19.99;51.99
63006;BME280;53704;52.532;6.426;2023-05-19T10:54:54;102565.22;;;19.95;49.02
63006;BME280;53704;52.532;6.426;2023-05-19T10:57:24;102576.00;;;19.10;50.22
63006;BME280;53704;52.532;6.426;2023-05-19T10:59:51;102569.59;;;19.26;52.36
63006;BME280;53704;52.532;6.426;2023-05-19T11:02:40;102575.00;;;19.03;49.13
63006;BME280;53704;52.532;6.426;2023-05-19T11:05:09;102570.66;;;18.77;51.37
63006;BME280;53704;52.532;6.426;2023-05-19T11:07:35;102568.34;;;18.97;51.59
63006;BME280;53704;52.532;6.426;2023-05-19T11:10:05;102577.31;;;19.14;55.24
63006;BME280;53704;52.532;6.426;2023-05-19T11:12:41;102574.66;;;19.61;53.51
63006;BME280;53704;52.532;6.426;2023-05-19T11:15:10;102575.91;;;19.27;50.22
63006;BME280;53704;52.532;6.426;2023-05-19T11:17:38;102566.81;;;19.03;50.68
63006;BME280;53704;52.532;6.426;2023-05-19T11:20:07;102575.25;;;19.79;50.54
63006;BME280;53704;52.532;6.426;2023-05-19T11:22:33;102573.78;;;19.92;51.96
63006;BME280;53704;52.532;6.426;2023-05-19T11:25:00;102562.81;;;20.68;48.99
63006;BME280;53704;52.532;6.426;2023-05-19T11:27:26;102570.34;;;20.66;47.87
63006;BME280;53704;52.532;6.426;2023-05-19T11:30:13;102573.28;;;19.10;47.51
63006;BME280;53704;52.532;6.426;2023-05-19T11:32:40;102565.00;;;18.87;51.54
63006;BME280;53704;52.532;6.426;2023-05-19T11:35:09;102562.47;;;19.71;49.14
63006;BME280;53704;52.532;6.426;2023-05-19T11:37:35;102566.69;;;19.28;47.41
63006;BME280;53704;52.532;6.426;2023-05-19T11:40:04;102561.88;;;19.61;48.33
63006;BME280;53704;52.532;6.426;2023-05-19T11:42:34;102551.19;;;20.95;50.37
63006;BME280;53704;52.532;6.426;2023-05-19T11:45:00;102556.44;;;20.52;47.17
63006;BME280;53704;52.532;6.426;2023-05-19T11:47:26;102543.13;;;20.19;46.52
63006;BME280;53704;52.532;6.426;2023-05-19T11:49:54;102552.94;;;19.91;50.17
63006;BME280;53704;52.532;6.426;2023-05-19T11:52:23;102550.25;;;19.36;47.40
63006;BME280;53704;52.532;6.426;2023-05-19T11:54:49;102544.28;;;20.70;49.08
63006;BME280;53704;52.532;6.426;2023-05-19T11:57:15;102554.47;;;20.76;50.71
63006;BME280;53704;52.532;6.426;2023-05-19T11:59:41;102543.91;;;20.43;46.30
63006;BME280;53704;52.532;6.426;2023-05-19T12:04:44;102544.09;;;20.86;49.65
63006;BME280;53704;52.532;6.426;2023-05-19T12:07:11;102547.19;;;20.98;48.48
63006;BME280;53704;52.532;6.426;2023-05-19T12:09:38;102539.56;;;20.93;45.11
63006;BME280;53704;52.532;6.426;2023-05-19T12:12:03;102537.56;;;20.28;44.80
63006;BME280;53704;52.532;6.426;2023-05-19T12:14:29;102537.44;;;20.06;44.72
63006;BME280;53704;52.532;6.426;2023-05-19T12:16:58;102540.00;;;20.22;47.78
63006;BME280;53704;52.532;6.426;2023-05-19T12:19:33;102535.44;;;20.68;49.12
63006;BME280;53704;52.532;6.426;2023-05-19T12:21:59;102541.19;;;21.24;44.58
63006;BME280;53704;52.532;6.426;2023-05-19T12:24:24;102529.09;;;21.55;45.19
63006;BME280;53704;52.532;6.426;2023-05-19T12:26:50;102523.47;;;22.13;45.81
63006;BME280;53704;52.532;6.426;2023-05-19T12:29:15;102525.81;;;22.16;44.64
63006;BME280;53704;52.532;6.426;2023-05-19T12:31:45;102527.56;;;21.31;43.07
63006;BME280;53704;52.532;6.426;2023-05-19T12:34:11;102528.53;;;22.38;44.19
63006;BME280;53704;52.532;6.426;2023-05-19T12:36:37;102519.53;;;22.99;42.70
63006;BME280;53704;52.532;6.426;2023-05-19T12:39:05;102520.81;;;21.70;42.21
63006;BME280;53704;52.532;6.426;2023-05-19T12:41:30;102509.16;;;22.46;43.47
63006;BME280;53704;52.532;6.426;2023-05-19T12:43:56;102523.25;;;21.22;42.67
63006;BME280;53704;52.532;6.426;2023-05-19T12:46:21;102509.81;;;22.20;43.55
63006;BME280;53704;52.532;6.426;2023-05-19T12:48:47;102520.72;;;21.85;46.04
63006;BME280;53704;52.532;6.426;2023-05-19T12:51:19;102523.50;;;21.63;44.40
63006;BME280;53704;52.532;6.426;2023-05-19T12:53:45;102512.97;;;20.28;43.29
63006;BME280;53704;52.532;6.426;2023-05-19T12:56:12;102520.63;;;21.50;44.92
63006;BME280;53704;52.532;6.426;2023-05-19T12:58:39;102503.75;;;23.08;44.07
63006;BME280;53704;52.532;6.426;2023-05-19T13:01:05;102513.25;;;22.00;45.95
63006;BME280;53704;52.532;6.426;2023-05-19T13:03:38;102511.78;;;21.11;44.35
63006;BME280;53704;52.532;6.426;2023-05-19T13:06:04;102502.94;;;22.31;42.78
63006;BME280;53704;52.532;6.426;2023-05-19T13:08:30;102510.81;;;21.19;44.49